Time;durP1;ratioP1;P1;durP2;ratioP2;P2;SDS_P1;SDS_P2;PMS_P1;PMS_P2;Temp;Humidity;BMP_temperature;BMP_pressure;BME280_temperature;BME280_humidity;BME280_pressure;Samples;Min_cycle;Max_cycle;Signal;HPM_P1;HPM_P2
2023/01/01 00:00:45;;;;;;;7.38;3.00;;;;;;;17.29;46.19;100786.22;5005699;28;20051;-72
2023/01/01 00:03:13;;;;;;;9.50;2.47;;;;;;;17.14;46.75;100781.41;4990810;28;20058;-73
2023/01/01 00:05:40;;;;;;;6.35;3.13;;;;;;;17.25;47.17;100778.91;4987838;28;20070;-73
2023/01/01 00:08:08;;;;;;;6.05;3.10;;;;;;;16.74;47.81;100792.59;4978209;28;20468;-72
2023/01/01 00:10:36;;;;;;;6.95;2.50;;;;;;;17.07;47.83;100784.00;4994796;28;20707;-70
2023/01/01 00:13:03;;;;;;;8.88;3.10;;;;;;;17.20;47.38;100791.13;4995928;28;20038;-71
2023/01/01 00:15:31;;;;;;;10.43;3.20;;;;;;;17.17;47.46;100797.41;4993856;28;20057;-72
2023/01/01 00:17:58;;;;;;;10.25;4.72;;;;;;;17.28;47.81;100792.13;4957690;28;20054;-72
2023/01/01 00:20:25;;;;;;;7.03;3.17;;;;;;;17.36;47.60;100791.16;4960646;28;20055;-72
2023/01/01 00:23:01;;;;;;;9.77;3.00;;;;;;;17.19;47.54;100785.94;4993814;28;20054;-71
2023/01/01 00:25:30;;;;;;;8.75;2.97;;;;;;;17.20;48.05;100793.91;4994491;28;20540;-71
2023/01/01 00:27:57;;;;;;;5.70;2.60;;;;;;;17.18;48.15;100787.88;4981340;28;20805;-71
2023/01/01 00:30:25;;;;;;;7.57;3.20;;;;;;;17.42;47.46;100790.53;4975917;28;20450;-72
2023/01/01 00:32:52;;;;;;;10.98;3.13;;;;;;;17.19;48.30;100792.28;4971623;28;20418;-72
2023/01/01 00:35:24;;;;;;;8.65;3.38;;;;;;;17.08;48.64;100802.31;4977476;28;20050;-75
2023/01/01 00:37:52;;;;;;;9.38;3.17;;;;;;;17.40;48.60;100778.16;4991054;28;20051;-73
2023/01/01 00:40:20;;;;;;;11.10;2.83;;;;;;;17.30;48.31;100789.78;4972643;28;20043;-72
2023/01/01 00:42:47;;;;;;;9.43;3.50;;;;;;;17.06;48.64;100781.56;4960209;28;20047;-72
2023/01/01 00:45:15;;;;;;;10.35;2.97;;;;;;;17.04;49.32;100783.88;4995399;28;20054;-73
2023/01/01 00:47:50;;;;;;;7.88;3.30;;;;;;;17.08;49.39;100782.84;4973108;28;20054;-74
2023/01/01 00:50:18;;;;;;;8.75;3.35;;;;;;;17.08;50.22;100787.59;4951454;28;20158;-72
2023/01/01 00:52:45;;;;;;;7.95;3.17;;;;;;;17.14;50.19;100777.84;4976406;28;20690;-74
2023/01/01 00:55:13;;;;;;;9.40;3.25;;;;;;;17.05;49.87;100791.88;4983851;28;20051;-73
2023/01/01 00:57:41;;;;;;;7.00;2.88;;;;;;;17.04;49.99;100779.16;4979643;28;20487;-74
2023/01/01 01:00:09;;;;;;;10.82;3.42;;;;;;;17.07;50.94;100780.41;4989456;28;20051;-73
2023/01/01 01:02:36;;;;;;;9.18;3.28;;;;;;;17.39;49.15;100780.13;4975435;28;20664;-73
2023/01/01 01:05:04;;;;;;;7.32;2.85;;;;;;;17.05;50.28;100775.19;4975642;28;20061;-75
2023/01/01 01:07:34;;;;;;;10.27;3.42;;;;;;;17.07;51.44;100780.41;4973044;28;20062;-73
2023/01/01 01:10:02;;;;;;;7.30;3.05;;;;;;;17.05;51.96;100779.97;5006289;28;20410;-74
2023/01/01 01:12:30;;;;;;;6.53;2.83;;;;;;;17.11;51.52;100782.13;4992545;28;20429;-74
2023/01/01 01:14:57;;;;;;;9.75;3.55;;;;;;;16.94;52.27;100789.97;4983506;28;20055;-76
2023/01/01 01:17:24;;;;;;;7.28;3.05;;;;;;;17.13;52.15;100778.97;4986230;28;20153;-75
2023/01/01 01:19:52;;;;;;;12.05;3.38;;;;;;;16.88;50.78;100783.84;4979136;28;20054;-75
2023/01/01 01:22:22;;;;;;;8.63;2.92;;;;;;;16.91;51.64;100785.13;4996281;28;20057;-74
2023/01/01 01:24:55;;;;;;;11.85;3.42;;;;;;;16.89;52.13;100793.81;4990980;28;20055;-75
2023/01/01 01:27:23;;;;;;;13.10;3.70;;;;;;;16.85;52.69;100792.91;4993323;28;20049;-74
2023/01/01 01:29:51;;;;;;;17.17;3.22;;;;;;;16.98;52.76;100797.25;4978529;28;20051;-73
2023/01/01 01:32:20;;;;;;;12.67;2.87;;;;;;;16.84;53.20;100794.09;4999649;28;20058;-74
2023/01/01 01:34:47;;;;;;;7.00;2.88;;;;;;;16.92;53.18;100797.84;4979001;28;20054;-74
2023/01/01 01:37:14;;;;;;;9.15;2.90;;;;;;;16.81;53.14;100795.59;4994562;28;20046;-74
2023/01/01 01:39:42;;;;;;;10.25;3.47;;;;;;;16.78;53.09;100790.72;5014853;28;20386;-74
2023/01/01 01:42:16;;;;;;;9.45;3.45;;;;;;;16.81;53.88;100811.47;4982894;28;20086;-75
2023/01/01 01:44:51;;;;;;;9.25;3.40;;;;;;;16.73;52.88;100816.03;4956959;28;20043;-74
2023/01/01 01:47:39;;;;;;;7.35;3.40;;;;;;;16.71;53.69;100817.53;4990393;28;20050;-75
2023/01/01 01:50:23;;;;;;;8.65;3.67;;;;;;;16.72;54.02;100816.34;4987374;28;20126;-74
2023/01/01 01:53:07;;;;;;;10.25;3.05;;;;;;;16.65;54.34;100833.63;4942940;29;20054;-75
2023/01/01 01:55:38;;;;;;;10.00;3.40;;;;;;;16.80;54.52;100830.16;4983501;28;20445;-73
2023/01/01 01:58:08;;;;;;;7.75;3.25;;;;;;;16.57;54.95;100834.59;5012288;28;20052;-75
2023/01/01 02:00:35;;;;;;;10.32;3.65;;;;;;;16.60;54.97;100824.72;5002356;28;20050;-74
2023/01/01 02:03:21;;;;;;;8.70;3.33;;;;;;;16.66;54.95;100823.34;4991364;28;20051;-73
2023/01/01 02:05:50;;;;;;;10.65;3.75;;;;;;;16.73;54.88;100843.84;4965947;28;20058;-74
2023/01/01 02:08:19;;;;;;;8.75;3.20;;;;;;;16.95;54.59;100825.78;4987346;28;20053;-74
2023/01/01 02:10:46;;;;;;;8.07;3.10;;;;;;;17.19;53.82;100834.03;4967818;28;20042;-75
2023/01/01 02:13:14;;;;;;;8.25;3.25;;;;;;;16.93;54.68;100844.81;4980160;28;20061;-74
2023/01/01 02:15:52;;;;;;;10.38;3.90;;;;;;;16.81;55.20;100845.66;4982480;28;20050;-74
2023/01/01 02:18:38;;;;;;;10.48;3.60;;;;;;;16.82;54.76;100854.81;4965819;28;20053;-74
2023/01/01 02:21:10;;;;;;;13.50;3.67;;;;;;;16.78;55.75;100865.03;4967635;28;20046;-74
2023/01/01 02:23:52;;;;;;;12.80;3.92;;;;;;;16.66;55.12;100856.72;4998977;28;20138;-74
2023/01/01 02:26:37;;;;;;;15.10;3.80;;;;;;;16.73;54.80;100848.59;5002281;28;20426;-73
2023/01/01 02:29:26;;;;;;;11.32;3.88;;;;;;;16.74;55.86;100858.53;4979818;28;20070;-73
2023/01/01 02:32:07;;;;;;;8.02;3.33;;;;;;;16.78;57.24;100854.72;4993722;28;20046;-75
2023/01/01 02:34:42;;;;;;;14.30;3.58;;;;;;;16.77;56.72;100853.09;4987831;28;20051;-74
2023/01/01 02:37:11;;;;;;;11.25;3.53;;;;;;;16.91;56.48;100866.63;4966417;28;20379;-67
2023/01/01 02:39:51;;;;;;;11.83;3.93;;;;;;;16.63;56.60;100869.34;4992951;28;20062;-68
2023/01/01 02:42:20;;;;;;;11.50;3.88;;;;;;;16.53;56.99;100869.81;4991866;28;20606;-68
2023/01/01 02:44:49;;;;;;;9.40;3.38;;;;;;;16.77;56.91;100874.56;4979280;28;20133;-68
2023/01/01 02:47:18;;;;;;;11.10;3.20;;;;;;;16.66;56.60;100871.44;4977444;28;20050;-68
2023/01/01 02:50:11;;;;;;;11.00;3.72;;;;;;;16.59;56.79;100890.69;4948104;28;20619;-68
2023/01/01 02:52:48;;;;;;;11.05;3.55;;;;;;;16.55;57.11;100884.19;4963010;28;20062;-68
2023/01/01 02:55:27;;;;;;;8.43;3.60;;;;;;;16.61;57.50;100893.94;4987476;28;20057;-67
2023/01/01 03:00:59;;;;;;;9.95;3.42;;;;;;;16.46;57.07;100890.97;4995010;28;20034;-68
2023/01/01 03:03:40;;;;;;;11.82;3.35;;;;;;;16.48;57.94;100895.09;4976294;28;20054;-68
2023/01/01 03:06:23;;;;;;;9.45;3.38;;;;;;;16.40;58.69;100893.22;4998915;28;20057;-68
2023/01/01 03:09:02;;;;;;;9.32;3.40;;;;;;;16.57;58.59;100881.88;4997411;28;20054;-70
2023/01/01 03:11:54;;;;;;;8.80;3.10;;;;;;;16.56;57.17;100885.78;4992912;28;20046;-68
2023/01/01 03:14:50;;;;;;;11.18;3.20;;;;;;;16.40;58.09;100867.38;4997661;28;20089;-68
2023/01/01 03:17:35;;;;;;;10.02;3.63;;;;;;;16.53;58.50;100872.59;4992316;28;20062;-68
2023/01/01 03:20:12;;;;;;;14.52;3.60;;;;;;;16.46;58.83;100896.53;4972623;28;20058;-68
2023/01/01 03:22:40;;;;;;;12.32;3.80;;;;;;;16.54;58.67;100890.09;5010913;28;20054;-67
2023/01/01 03:25:09;;;;;;;8.93;4.00;;;;;;;16.61;59.15;100888.38;4987642;28;20055;-68
2023/01/01 03:27:38;;;;;;;;;;;;;;;16.54;58.07;100887.31;4993981;28;20057;-67
2023/01/01 03:30:09;;;;;;;13.40;3.63;;;;;;;16.35;57.42;100898.19;4959179;28;19929;-68
2023/01/01 03:35:24;;;;;;;14.43;3.20;;;;;;;16.33;59.32;100912.44;4981162;28;19922;-68
2023/01/01 03:37:53;;;;;;;8.45;3.25;;;;;;;16.46;58.86;100913.22;4994445;28;20711;-67
2023/01/01 03:40:21;;;;;;;10.50;3.17;;;;;;;16.51;58.95;100922.19;4992294;28;20510;-68
2023/01/01 03:42:51;;;;;;;12.23;3.50;;;;;;;16.40;59.10;100912.69;4994841;28;20050;-68
2023/01/01 03:45:28;;;;;;;17.58;3.78;;;;;;;16.36;59.51;100913.69;4962151;28;21108;-68
2023/01/01 03:47:56;;;;;;;15.50;3.75;;;;;;;16.33;59.35;100908.84;4974887;28;20054;-67
2023/01/01 03:50:31;;;;;;;9.43;3.45;;;;;;;16.51;60.14;100911.06;4992423;28;20417;-68
2023/01/01 03:53:04;;;;;;;11.85;3.97;;;;;;;16.36;59.67;100916.47;4996053;28;20051;-67
2023/01/01 03:55:36;;;;;;;11.27;3.72;;;;;;;16.42;59.96;100921.47;4979644;28;20057;-67
2023/01/01 03:58:34;;;;;;;9.45;3.28;;;;;;;16.28;60.41;100931.31;4994169;28;20450;-69
2023/01/01 04:01:08;;;;;;;10.73;3.80;;;;;;;16.40;60.96;100926.56;4966134;28;20402;-68
2023/01/01 04:03:36;;;;;;;11.15;3.95;;;;;;;16.33;60.23;100929.13;4986767;28;20513;-66
2023/01/01 04:06:04;;;;;;;11.75;3.83;;;;;;;16.26;59.78;100931.66;4957973;28;20050;-67
2023/01/01 04:08:33;;;;;;;9.98;3.65;;;;;;;16.33;60.22;100948.59;4990234;28;20050;-68
2023/01/01 04:12:00;;;;;;;10.73;3.97;;;;;;;16.37;60.04;100941.16;4982749;28;20065;-68
2023/01/01 04:13:52;;;;;;;9.20;3.63;;;;;;;16.26;59.54;100944.75;4984961;28;20054;-68
2023/01/01 04:16:20;;;;;;;12.65;3.65;;;;;;;16.35;60.31;100942.69;4999505;28;20050;-68
2023/01/01 04:18:47;;;;;;;14.75;3.78;;;;;;;16.30;60.46;100942.91;4975390;28;20061;-68
2023/01/01 04:21:14;;;;;;;13.30;3.47;;;;;;;16.18;60.87;100940.13;4984433;28;20066;-68
2023/01/01 04:23:41;;;;;;;9.98;3.72;;;;;;;16.17;62.14;100950.41;4994662;28;20042;-68
2023/01/01 04:26:15;;;;;;;11.65;3.88;;;;;;;16.30;61.13;100954.81;4983562;28;20046;-67
2023/01/01 04:28:43;;;;;;;9.02;3.40;;;;;;;16.34;60.70;100957.72;4979886;28;20422;-68
2023/01/01 04:31:10;;;;;;;11.63;3.75;;;;;;;16.26;60.67;100962.25;4998344;28;20047;-67
2023/01/01 04:33:38;;;;;;;12.75;3.45;;;;;;;16.36;62.34;100958.19;4992236;28;20046;-68
2023/01/01 04:36:09;;;;;;;12.77;3.92;;;;;;;16.43;61.28;100959.25;4982714;28;20047;-68
2023/01/01 04:38:37;;;;;;;11.18;3.97;;;;;;;16.27;60.78;100952.72;4980342;28;20055;-68
2023/01/01 04:41:04;;;;;;;9.77;3.30;;;;;;;16.38;61.33;100958.66;4982864;28;20516;-68
2023/01/01 04:43:31;;;;;;;12.38;3.72;;;;;;;16.33;61.02;100967.22;4991971;28;20054;-68
2023/01/01 04:46:00;;;;;;;16.27;4.22;;;;;;;16.22;60.96;100963.25;4997106;28;20065;-68
2023/01/01 04:48:29;;;;;;;11.60;3.97;;;;;;;16.46;61.15;100963.28;4981697;28;20505;-67
2023/01/01 04:50:59;;;;;;;10.70;3.70;;;;;;;16.50;61.50;100964.25;4981682;28;20058;-68
2023/01/01 04:53:31;;;;;;;11.82;3.55;;;;;;;16.39;60.67;100971.38;4986329;28;20515;-68
2023/01/01 04:56:13;;;;;;;14.15;3.92;;;;;;;16.20;61.66;100965.56;4984794;28;20061;-67
2023/01/01 04:58:41;;;;;;;14.63;4.15;;;;;;;16.21;62.70;100967.22;4998383;28;20065;-68
2023/01/01 05:01:18;;;;;;;12.57;3.88;;;;;;;16.39;62.06;100965.81;4987440;28;20046;-68
2023/01/01 05:03:46;;;;;;;14.90;3.55;;;;;;;16.60;61.33;100963.78;4983271;28;20061;-67
2023/01/01 05:06:14;;;;;;;10.48;3.30;;;;;;;16.51;61.56;100963.91;4986685;28;20050;-68
2023/01/01 05:08:44;;;;;;;8.95;3.25;;;;;;;16.07;61.83;100970.31;4983962;28;20474;-69
2023/01/01 05:11:17;;;;;;;14.25;3.40;;;;;;;16.33;63.15;100967.22;5018176;28;20065;-67
2023/01/01 05:13:47;;;;;;;12.00;3.80;;;;;;;16.38;62.09;100983.69;4983944;28;20070;-67
2023/01/01 05:16:17;;;;;;;9.68;3.47;;;;;;;16.28;62.52;100986.91;4988986;28;20046;-68
2023/01/01 05:18:45;;;;;;;;;;;;;;;16.42;62.21;100993.75;4983782;28;20059;-68
2023/01/01 05:21:17;;;;;;;7.40;3.30;;;;;;;16.53;62.56;101010.81;4987975;28;19928;-68
2023/01/01 05:23:44;;;;;;;12.07;3.50;;;;;;;16.24;61.42;100999.88;4953648;28;20055;-67
2023/01/01 05:26:17;;;;;;;15.48;4.63;;;;;;;16.21;62.32;101001.38;4976400;28;20130;-67
2023/01/01 05:28:45;;;;;;;12.30;3.22;;;;;;;16.07;63.79;101011.19;4998976;28;20050;-68
2023/01/01 05:31:17;;;;;;;14.35;3.50;;;;;;;16.46;62.44;101011.41;4987189;28;20453;-67
2023/01/01 05:33:45;;;;;;;11.02;3.38;;;;;;;16.38;63.29;101011.47;4980519;28;20054;-68
2023/01/01 05:36:19;;;;;;;13.88;3.80;;;;;;;16.27;62.69;101010.28;4969254;28;20625;-68
2023/01/01 05:38:47;;;;;;;13.07;3.40;;;;;;;16.28;63.75;101026.66;4982539;28;20058;-68
2023/01/01 05:41:15;;;;;;;17.63;4.15;;;;;;;16.40;63.28;101026.66;4994090;28;20050;-69
2023/01/01 05:43:43;;;;;;;16.33;4.25;;;;;;;16.07;63.29;101037.00;5014203;28;20066;-67
2023/01/01 05:46:21;;;;;;;19.85;4.28;;;;;;;16.25;63.87;101035.66;4968906;28;20042;-67
2023/01/01 05:48:50;;;;;;;10.43;3.67;;;;;;;16.33;63.95;101031.97;4979458;28;20054;-66
2023/01/01 05:51:23;;;;;;;12.38;3.70;;;;;;;16.28;62.87;101032.22;4983849;28;20061;-67
2023/01/01 05:53:51;;;;;;;14.50;4.38;;;;;;;16.21;63.08;101034.75;4977211;28;20067;-67
2023/01/01 05:56:19;;;;;;;11.73;3.78;;;;;;;16.26;63.49;101039.25;4981610;28;20117;-67
2023/01/01 05:58:46;;;;;;;10.00;3.90;;;;;;;16.31;64.06;101025.13;4993018;28;20050;-68
2023/01/01 06:01:23;;;;;;;11.23;3.72;;;;;;;16.45;62.20;101039.53;4981961;28;20071;-66
2023/01/01 06:03:51;;;;;;;13.77;3.47;;;;;;;16.30;64.16;101037.41;4977504;28;20059;-67
2023/01/01 06:06:23;;;;;;;12.57;4.00;;;;;;;16.18;63.08;101026.28;4994297;28;20051;-67
2023/01/01 06:08:55;;;;;;;12.43;3.65;;;;;;;16.10;63.58;101030.75;4977073;28;20050;-67
2023/01/01 06:11:23;;;;;;;15.52;4.57;;;;;;;16.12;63.76;101016.50;4996063;28;20053;-67
2023/01/01 06:13:52;;;;;;;13.93;4.30;;;;;;;15.81;64.29;101018.94;4943134;28;20164;-67
2023/01/01 06:16:19;;;;;;;15.07;3.55;;;;;;;16.17;64.54;101017.13;4986095;28;20410;-67
2023/01/01 06:18:46;;;;;;;12.65;3.78;;;;;;;15.94;64.80;101012.28;4991693;28;20051;-74
2023/01/01 06:21:16;;;;;;;15.15;3.95;;;;;;;15.92;64.84;101009.06;4980240;28;20073;-67
2023/01/01 06:23:43;;;;;;;13.13;4.37;;;;;;;15.89;64.66;101006.94;4978021;28;20054;-67
2023/01/01 06:26:13;;;;;;;10.25;3.63;;;;;;;16.06;64.67;101015.91;4996150;28;20062;-74
2023/01/01 06:28:41;;;;;;;14.77;4.07;;;;;;;16.12;64.49;101006.22;4993030;28;20070;-73
2023/01/01 06:31:10;;;;;;;18.17;4.03;;;;;;;15.96;64.35;101001.63;4985606;28;20076;-67
2023/01/01 06:33:38;;;;;;;14.10;4.17;;;;;;;15.77;65.46;101002.97;4994568;28;20055;-67
2023/01/01 06:36:08;;;;;;;14.07;3.50;;;;;;;15.84;64.38;101002.41;5014139;28;20050;-67
2023/01/01 06:38:41;;;;;;;15.25;4.05;;;;;;;15.70;66.02;101002.72;5012491;28;20058;-67
2023/01/01 06:41:14;;;;;;;18.35;4.25;;;;;;;15.82;65.14;101009.47;4996506;28;20046;-67
2023/01/01 06:43:42;;;;;;;16.85;4.50;;;;;;;15.98;64.66;101022.38;4980993;28;20058;-67
2023/01/01 06:46:18;;;;;;;12.90;4.03;;;;;;;16.01;65.93;101026.44;4967952;28;20061;-67
2023/01/01 06:48:48;;;;;;;13.40;3.95;;;;;;;16.02;65.21;101033.63;4997125;28;20418;-68
2023/01/01 06:51:18;;;;;;;17.33;4.32;;;;;;;15.73;64.66;101045.66;4987910;28;20070;-67
2023/01/01 06:53:47;;;;;;;14.10;4.38;;;;;;;15.77;65.03;101055.75;4992340;28;20046;-68
2023/01/01 06:56:14;;;;;;;12.20;3.50;;;;;;;15.97;65.59;101053.28;4983933;28;20054;-73
2023/01/01 06:58:41;;;;;;;15.43;3.97;;;;;;;15.89;65.81;101051.38;4995026;28;20063;-67
2023/01/01 07:01:16;;;;;;;12.57;3.67;;;;;;;15.99;66.33;101053.75;4995770;28;20061;-68
2023/01/01 07:03:51;;;;;;;14.35;3.70;;;;;;;16.00;65.36;101069.28;4991799;28;20051;-73
2023/01/01 07:06:19;;;;;;;13.10;3.88;;;;;;;15.83;65.62;101058.31;5005469;28;20048;-73
2023/01/01 07:08:47;;;;;;;15.60;3.83;;;;;;;15.78;66.14;101070.44;4992156;28;20646;-67
2023/01/01 07:11:15;;;;;;;16.90;3.70;;;;;;;15.86;65.30;101072.34;4994972;28;20061;-67
2023/01/01 07:13:43;;;;;;;13.68;3.80;;;;;;;15.89;65.29;101073.59;4981113;28;20043;-66
2023/01/01 07:16:11;;;;;;;17.55;4.40;;;;;;;15.96;65.94;101085.00;4998417;28;20521;-68
2023/01/01 07:18:39;;;;;;;16.15;4.28;;;;;;;16.06;65.51;101081.78;4996591;28;20054;-68
2023/01/01 07:21:23;;;;;;;14.93;3.58;;;;;;;16.12;65.71;101083.22;4991646;28;20129;-67
2023/01/01 07:24:00;;;;;;;15.13;3.70;;;;;;;16.02;65.82;101091.97;4986669;28;20062;-67
2023/01/01 07:26:29;;;;;;;13.38;4.03;;;;;;;15.97;65.86;101094.97;4995602;28;20058;-73
2023/01/01 07:28:56;;;;;;;16.33;4.05;;;;;;;15.86;66.49;101096.53;4972419;28;20050;-67
2023/01/01 07:31:38;;;;;;;16.40;3.88;;;;;;;15.98;66.60;101110.47;4994066;28;20057;-74
2023/01/01 07:34:06;;;;;;;14.45;3.80;;;;;;;16.20;67.30;101099.81;4977275;28;20055;-75
2023/01/01 07:36:33;;;;;;;11.18;3.72;;;;;;;16.08;65.10;101105.31;4982332;28;20054;-69
2023/01/01 07:39:01;;;;;;;17.77;3.78;;;;;;;16.06;65.93;101104.00;4975453;28;20055;-75
2023/01/01 07:41:28;;;;;;;12.93;3.75;;;;;;;16.07;66.32;101105.66;4986853;28;20077;-74
2023/01/01 07:43:58;;;;;;;13.00;3.65;;;;;;;16.15;67.33;101102.78;4995503;28;20050;-75
2023/01/01 07:46:26;;;;;;;14.82;3.53;;;;;;;16.12;66.29;101103.50;4977876;28;20070;-73
2023/01/01 07:48:53;;;;;;;17.17;3.97;;;;;;;16.26;66.05;101111.53;4993164;28;20073;-66
2023/01/01 07:51:21;;;;;;;16.13;3.72;;;;;;;15.89;65.01;101107.78;4989819;28;20054;-67
2023/01/01 07:53:48;;;;;;;13.35;3.88;;;;;;;16.13;66.92;101121.78;5006865;28;20046;-68
2023/01/01 07:56:15;;;;;;;17.08;3.97;;;;;;;16.08;66.23;101133.09;4984979;28;20053;-67
2023/01/01 07:58:43;;;;;;;17.83;4.05;;;;;;;15.90;66.63;101139.94;4983008;28;20070;-67
2023/01/01 08:01:11;;;;;;;13.15;3.63;;;;;;;16.03;66.81;101146.38;4973054;28;20050;-67
2023/01/01 08:03:39;;;;;;;14.57;3.95;;;;;;;16.16;66.92;101145.31;4993878;28;20482;-67
2023/01/01 08:06:11;;;;;;;14.38;3.70;;;;;;;16.17;66.02;101147.75;4986570;28;20050;-67
2023/01/01 08:08:39;;;;;;;12.30;3.85;;;;;;;16.31;67.33;101151.06;4974154;28;20062;-67
2023/01/01 08:11:07;;;;;;;9.65;3.22;;;;;;;16.19;65.91;101156.56;4998742;28;20057;-67
2023/01/01 08:13:35;;;;;;;14.68;3.25;;;;;;;16.11;66.59;101160.22;4982718;28;20042;-68
2023/01/01 08:16:03;;;;;;;13.73;3.75;;;;;;;16.17;66.64;101160.81;4983120;28;20046;-66
2023/01/01 08:18:30;;;;;;;15.15;3.67;;;;;;;15.85;67.25;101158.81;4981807;28;20047;-67
2023/01/01 08:20:57;;;;;;;14.15;3.55;;;;;;;16.23;66.76;101173.38;4977320;28;20051;-68
2023/01/01 08:23:25;;;;;;;15.27;3.60;;;;;;;16.15;67.83;101177.84;4955267;28;20482;-67
2023/01/01 08:25:52;;;;;;;12.07;3.28;;;;;;;16.02;67.81;101175.34;4968746;28;20109;-67
2023/01/01 08:28:19;;;;;;;10.82;3.65;;;;;;;16.08;67.76;101174.78;4995451;28;20054;-68
2023/01/01 08:30:46;;;;;;;15.20;3.90;;;;;;;16.07;67.42;101178.72;4992875;28;20094;-67
2023/01/01 08:33:14;;;;;;;15.05;4.00;;;;;;;16.21;67.32;101178.44;4978386;28;20603;-68
2023/01/01 08:35:42;;;;;;;14.48;4.22;;;;;;;16.12;66.69;101186.88;4993853;28;20069;-66
2023/01/01 08:38:12;;;;;;;14.00;4.20;;;;;;;16.24;67.12;101181.38;4991124;28;20502;-67
2023/01/01 08:40:40;;;;;;;17.88;3.75;;;;;;;16.34;67.18;101183.72;4980324;28;20053;-67
2023/01/01 08:43:07;;;;;;;17.50;3.75;;;;;;;16.25;67.19;101177.41;4992751;28;20050;-67
2023/01/01 08:45:34;;;;;;;17.85;4.20;;;;;;;16.26;67.39;101170.72;4979942;28;20053;-67
2023/01/01 08:48:02;;;;;;;13.52;3.97;;;;;;;16.24;67.72;101177.75;4994250;28;20047;-67
2023/01/01 08:50:29;;;;;;;17.40;4.18;;;;;;;16.26;67.65;101186.59;4997619;28;20063;-67
2023/01/01 08:52:58;;;;;;;15.98;4.03;;;;;;;16.03;66.75;101177.78;4960642;28;20050;-67
2023/01/01 08:55:25;;;;;;;18.13;3.97;;;;;;;15.79;68.18;101174.84;4986521;28;20054;-67
2023/01/01 08:57:52;;;;;;;13.95;3.97;;;;;;;16.06;67.22;101165.16;4994538;28;20050;-67
2023/01/01 09:00:20;;;;;;;15.40;3.45;;;;;;;16.10;67.65;101171.66;4985779;28;20051;-67
2023/01/01 09:02:47;;;;;;;12.95;3.50;;;;;;;15.98;67.38;101163.25;4996732;28;20410;-67
2023/01/01 09:05:15;;;;;;;11.40;3.47;;;;;;;16.05;68.20;101169.91;5006336;28;20076;-67
2023/01/01 09:07:42;;;;;;;13.77;4.10;;;;;;;16.02;67.43;101153.94;4979069;28;20057;-67
2023/01/01 09:10:09;;;;;;;14.27;4.28;;;;;;;15.79;67.46;101156.19;4988514;28;20053;-67
2023/01/01 09:12:40;;;;;;;12.02;3.95;;;;;;;15.97;67.80;101150.53;4983596;28;20069;-68
2023/01/01 09:15:14;;;;;;;15.10;4.40;;;;;;;15.90;67.29;101137.16;4984857;28;20058;-67
2023/01/01 09:17:42;;;;;;;13.55;4.13;;;;;;;15.77;67.60;101141.03;4961036;28;20043;-69
2023/01/01 09:20:09;;;;;;;17.98;4.55;;;;;;;15.92;67.23;101151.53;4974217;28;20058;-67
2023/01/01 09:22:37;;;;;;;16.73;4.20;;;;;;;15.61;67.51;101145.56;4968559;28;20054;-68
2023/01/01 09:25:04;;;;;;;16.20;4.07;;;;;;;15.50;67.95;101147.91;4975291;28;20042;-68
2023/01/01 09:27:33;;;;;;;15.70;4.37;;;;;;;15.92;68.40;101148.75;4953502;28;20055;-66
2023/01/01 09:30:01;;;;;;;15.52;4.32;;;;;;;16.04;68.76;101151.59;4990825;28;20046;-67
2023/01/01 09:32:29;;;;;;;16.77;4.40;;;;;;;15.93;68.76;101144.84;4981628;28;20061;-68
2023/01/01 09:34:57;;;;;;;20.50;4.28;;;;;;;16.16;68.53;101143.31;4967073;28;20051;-70
2023/01/01 09:37:24;;;;;;;16.05;4.10;;;;;;;16.27;67.22;101138.97;4987439;28;20070;-69
2023/01/01 09:39:51;;;;;;;14.85;4.50;;;;;;;16.25;66.01;101149.63;4987959;28;20050;-71
2023/01/01 09:42:37;;;;;;;18.73;4.28;;;;;;;16.44;66.41;101158.28;4982698;28;20050;-70
2023/01/01 09:45:17;;;;;;;18.55;4.65;;;;;;;16.33;66.11;101159.88;4977352;28;20469;-68
2023/01/01 09:47:46;;;;;;;18.10;4.47;;;;;;;16.48;65.70;101156.47;4977471;28;20062;-69
2023/01/01 09:50:17;;;;;;;14.03;3.83;;;;;;;16.44;65.28;101155.50;4975340;28;20634;-67
2023/01/01 09:52:51;;;;;;;13.95;3.78;;;;;;;16.46;65.34;101175.47;4976042;28;20070;-69
2023/01/01 09:55:25;;;;;;;13.23;3.97;;;;;;;16.54;65.21;101182.94;4978236;28;20057;-67
2023/01/01 09:57:54;;;;;;;17.80;4.75;;;;;;;16.72;64.87;101198.28;4988294;28;20154;-69
2023/01/01 10:00:22;;;;;;;14.52;4.22;;;;;;;16.40;64.74;101190.72;4993406;28;20054;-66
2023/01/01 10:03:36;;;;;;;12.40;3.72;;;;;;;16.37;65.33;101193.38;4989149;28;20061;-67
2023/01/01 10:06:04;;;;;;;14.90;4.13;;;;;;;16.54;65.58;101187.66;4963605;28;20043;-69
2023/01/01 10:08:53;;;;;;;17.98;4.97;;;;;;;16.52;65.21;101189.97;4971294;28;20051;-69
2023/01/01 10:11:34;;;;;;;16.83;4.22;;;;;;;16.27;66.18;101200.13;4972508;28;20053;-74
2023/01/01 10:14:16;;;;;;;20.08;5.35;;;;;;;16.22;66.04;101194.78;4977230;28;20050;-72
2023/01/01 10:16:46;;;;;;;18.50;4.47;;;;;;;15.74;67.11;101198.06;4992024;28;20054;-70
2023/01/01 10:19:44;;;;;;;19.45;4.40;;;;;;;16.01;67.50;101198.69;4981617;28;20051;-72
2023/01/01 10:22:19;;;;;;;16.17;4.38;;;;;;;16.22;66.22;101199.53;4990150;28;20051;-70
2023/01/01 10:24:54;;;;;;;16.95;4.63;;;;;;;16.30;66.92;101193.88;4989291;28;20051;-69
2023/01/01 10:27:28;;;;;;;14.65;4.13;;;;;;;16.38;65.25;101193.03;4982902;28;20062;-71
2023/01/01 10:29:56;;;;;;;13.93;4.05;;;;;;;16.28;66.18;101189.84;4993375;28;20080;-75
2023/01/01 10:32:33;;;;;;;15.73;3.63;;;;;;;16.18;65.81;101184.69;4978414;28;20055;-71
2023/01/01 10:35:13;;;;;;;17.40;4.45;;;;;;;16.42;65.83;101174.47;4981028;28;20046;-69
2023/01/01 10:37:41;;;;;;;13.70;4.05;;;;;;;16.41;65.41;101181.22;4979534;28;20055;-70
2023/01/01 10:40:18;;;;;;;19.83;4.45;;;;;;;16.30;65.53;101176.41;4951841;28;20046;-68
2023/01/01 10:42:48;;;;;;;20.05;4.68;;;;;;;16.38;65.00;101167.16;4973452;28;20047;-70
2023/01/01 10:45:37;;;;;;;16.58;3.95;;;;;;;16.35;64.54;101153.97;4983485;28;20057;-69
2023/01/01 10:48:08;;;;;;;12.48;3.83;;;;;;;16.52;64.77;101156.59;4979740;28;20065;-70
2023/01/01 10:50:43;;;;;;;18.60;4.40;;;;;;;16.38;64.94;101151.31;4978113;28;20042;-70
2023/01/01 10:53:25;;;;;;;16.15;4.70;;;;;;;16.50;64.27;101137.47;4992645;28;20050;-70
2023/01/01 10:56:01;;;;;;;14.52;5.50;;;;;;;16.53;63.95;101134.00;4975237;28;20430;-69
2023/01/01 10:58:36;;;;;;;20.85;4.85;;;;;;;16.56;63.85;101122.19;4975422;28;20051;-69
2023/01/01 11:01:06;;;;;;;15.05;4.60;;;;;;;16.21;63.85;101120.09;4975596;28;20047;-67
2023/01/01 11:03:35;;;;;;;15.02;4.10;;;;;;;15.88;64.78;101122.81;4987079;28;20778;-67
2023/01/01 11:06:06;;;;;;;16.10;4.30;;;;;;;15.78;65.63;101123.22;4976612;28;20055;-68
2023/01/01 11:08:35;;;;;;;11.35;3.78;;;;;;;15.55;67.74;101122.72;4948726;28;20042;-68
2023/01/01 11:11:02;;;;;;;14.50;6.85;;;;;;;15.76;67.65;101120.78;4959104;28;20053;-66
2023/01/01 11:13:30;;;;;;;17.77;6.47;;;;;;;15.94;67.21;101113.13;4976240;28;20047;-66
2023/01/01 11:15:59;;;;;;;14.90;6.40;;;;;;;16.06;66.61;101112.34;4976746;28;20117;-66
2023/01/01 11:18:34;;;;;;;15.85;5.18;;;;;;;16.06;67.57;101101.25;4976725;28;20047;-66
2023/01/01 11:21:04;;;;;;;13.65;5.97;;;;;;;16.10;66.17;101104.97;4974480;28;20611;-65
2023/01/01 11:23:37;;;;;;;14.35;5.28;;;;;;;16.12;67.33;101097.09;4959534;28;20051;-66
2023/01/01 11:26:16;;;;;;;15.10;4.35;;;;;;;16.03;67.20;101096.38;4972102;28;20516;-65
2023/01/01 11:29:21;;;;;;;11.93;3.42;;;;;;;15.97;67.31;101081.88;4975057;28;20051;-66
2023/01/01 11:31:48;;;;;;;13.43;3.70;;;;;;;15.79;67.02;101083.19;4990730;28;20066;-65
2023/01/01 11:34:45;;;;;;;18.05;4.57;;;;;;;15.77;68.08;101077.16;4975374;28;20050;-65
2023/01/01 11:37:34;;;;;;;20.50;9.00;;;;;;;15.83;68.22;101061.09;4973572;28;20059;-66
2023/01/01 11:40:04;;;;;;;19.58;5.43;;;;;;;15.87;69.59;101054.50;4975132;28;20051;-65
2023/01/01 11:42:33;;;;;;;16.15;5.18;;;;;;;15.79;68.71;101053.41;4959865;28;20059;-66
2023/01/01 11:45:12;;;;;;;15.95;5.05;;;;;;;15.76;69.63;101048.56;4965485;28;20046;-69